createdAt,value
2018-01-12T00:00:01.605Z,21.62
2018-01-12T00:02:29.174Z,18.70
2018-01-12T00:04:56.752Z,20.65
2018-01-12T00:07:24.322Z,18.73
2018-01-12T00:09:53.581Z,18.87
2018-01-12T00:12:21.138Z,20.23
2018-01-12T00:14:48.713Z,18.65
2018-01-12T00:17:16.268Z,17.73
2018-01-12T00:19:43.829Z,17.90
2018-01-12T00:22:14.253Z,17.85
2018-01-12T00:24:41.814Z,17.62
2018-01-12T00:27:09.368Z,18.95
2018-01-12T00:29:36.955Z,17.62
2018-01-12T00:32:04.514Z,18.02
2018-01-12T00:34:32.092Z,17.25
2018-01-12T00:36:59.645Z,17.70
2018-01-12T00:39:27.219Z,18.33
2018-01-12T00:41:55.579Z,19.60
2018-01-12T00:44:23.141Z,20.52
2018-01-12T00:46:50.706Z,18.20
2018-01-12T00:49:18.298Z,17.48
2018-01-12T00:51:45.883Z,19.05
2018-01-12T00:54:13.456Z,17.25
2018-01-12T00:56:41.027Z,19.75
2018-01-12T00:59:08.581Z,18.33
2018-01-12T01:01:36.174Z,18.52
2018-01-12T01:04:04.487Z,19.23
2018-01-12T01:06:32.158Z,17.73
2018-01-12T01:08:59.724Z,19.87
2018-01-12T01:11:27.281Z,18.45
2018-01-12T01:13:54.855Z,19.08
2018-01-12T01:16:22.437Z,19.85
2018-01-12T01:18:50.002Z,17.87
2018-01-12T01:21:17.567Z,18.87
2018-01-12T01:23:45.899Z,17.52
2018-01-12T01:26:13.442Z,20.62
2018-01-12T01:28:40.995Z,20.12
2018-01-12T01:31:08.557Z,19.73
2018-01-12T01:33:36.111Z,17.65
2018-01-12T01:36:03.704Z,18.15
2018-01-12T01:38:31.284Z,19.90
2018-01-12T01:40:59.614Z,19.62
2018-01-12T01:43:27.203Z,20.02
2018-01-12T01:45:54.749Z,19.27
2018-01-12T01:51:19.694Z,19.60
2018-01-12T01:53:47.273Z,19.48
2018-01-12T01:56:14.829Z,18.85
2018-01-12T01:58:43.159Z,18.85
2018-01-12T02:01:10.749Z,18.20
2018-01-12T02:03:38.310Z,20.02
2018-01-12T02:06:05.852Z,20.37
2018-01-12T02:08:33.434Z,20.80
2018-01-12T02:11:01.270Z,20.92
2018-01-12T02:13:28.861Z,20.10
2018-01-12T02:15:56.403Z,20.08
2018-01-12T02:18:23.948Z,21.75
2018-01-12T02:20:51.520Z,21.12
2018-01-12T02:23:19.069Z,20.92
2018-01-12T02:25:46.637Z,22.20
2018-01-12T02:28:14.289Z,25.80
2018-01-12T02:30:41.846Z,22.15
2018-01-12T02:33:09.424Z,21.40
2018-01-12T02:35:36.991Z,19.98
2018-01-12T02:38:04.531Z,18.90
2018-01-12T02:40:32.951Z,18.77
2018-01-12T02:43:01.312Z,17.77
2018-01-12T02:45:28.865Z,18.60
2018-01-12T02:47:56.445Z,16.15
2018-01-12T02:50:24.002Z,18.45
2018-01-12T02:52:52.364Z,19.10
2018-01-12T02:55:19.935Z,20.12
2018-01-12T02:57:49.006Z,18.42
2018-01-12T03:00:16.591Z,18.37
2018-01-12T03:02:44.167Z,17.80
2018-01-12T03:05:12.508Z,19.05
2018-01-12T03:07:40.048Z,17.02
2018-01-12T03:10:07.605Z,17.98
2018-01-12T03:12:35.172Z,17.60
2018-01-12T03:15:02.756Z,16.67
2018-01-12T03:17:30.332Z,17.12
2018-01-12T03:19:57.914Z,15.50
2018-01-12T03:22:26.260Z,17.77
2018-01-12T03:24:53.830Z,16.60
2018-01-12T03:27:21.428Z,18.20
2018-01-12T03:29:48.972Z,16.20
2018-01-12T03:32:17.336Z,16.08
2018-01-12T03:34:44.916Z,16.75
2018-01-12T03:37:13.238Z,16.50
2018-01-12T03:39:40.779Z,17.20
2018-01-12T03:42:08.352Z,19.05
2018-01-12T03:44:35.918Z,15.77
2018-01-12T03:47:03.489Z,17.48
2018-01-12T03:49:31.086Z,16.73
2018-01-12T03:51:59.405Z,17.48
2018-01-12T03:54:26.947Z,18.90
2018-01-12T03:56:54.533Z,18.73
2018-01-12T03:59:22.103Z,18.58
2018-01-12T04:01:49.661Z,16.58
2018-01-12T04:04:17.237Z,16.25
2018-01-12T04:06:44.802Z,19.17
2018-01-12T04:09:12.371Z,15.02
2018-01-12T04:11:40.721Z,15.15
2018-01-12T04:14:08.267Z,14.43
2018-01-12T04:16:35.810Z,17.83
2018-01-12T04:19:03.428Z,17.58
2018-01-12T04:21:31.740Z,16.45
2018-01-12T04:23:59.304Z,16.98
2018-01-12T04:26:26.886Z,16.00
2018-01-12T04:28:54.456Z,16.92
2018-01-12T04:31:21.998Z,17.17
2018-01-12T04:33:49.573Z,17.50
2018-01-12T04:36:17.143Z,18.83
2018-01-12T04:38:44.688Z,18.60
2018-01-12T04:41:12.282Z,16.80
2018-01-12T04:43:40.627Z,18.70
2018-01-12T04:46:08.189Z,18.95
2018-01-12T04:48:35.753Z,15.85
2018-01-12T04:51:03.303Z,17.20
2018-01-12T04:53:30.844Z,17.65
2018-01-12T04:55:58.421Z,17.15
2018-01-12T04:58:25.982Z,14.95
2018-01-12T05:00:53.537Z,16.70
2018-01-12T05:03:21.126Z,15.30
2018-01-12T05:05:48.700Z,17.48
2018-01-12T05:08:17.012Z,15.68
2018-01-12T05:10:44.589Z,17.45
2018-01-12T05:13:12.163Z,16.83
2018-01-12T05:15:39.711Z,17.50
2018-01-12T05:18:07.293Z,15.48
2018-01-12T05:20:34.859Z,15.88
2018-01-12T05:23:02.426Z,14.02
2018-01-12T05:25:30.001Z,17.35
2018-01-12T05:27:58.329Z,14.52
2018-01-12T05:30:25.904Z,14.23
2018-01-12T05:32:53.484Z,13.43
2018-01-12T05:35:21.035Z,15.23
2018-01-12T05:37:48.596Z,15.13
2018-01-12T05:40:16.188Z,12.55
2018-01-12T05:42:43.763Z,14.70
2018-01-12T05:45:11.326Z,13.73
2018-01-12T05:47:38.904Z,14.75
2018-01-12T05:50:06.478Z,13.00
2018-01-12T05:52:34.024Z,13.40
2018-01-12T05:55:01.597Z,12.37
2018-01-12T05:57:29.493Z,12.77
2018-01-12T05:59:57.921Z,14.18
2018-01-12T06:02:37.356Z,14.05
2018-01-12T06:05:16.665Z,13.85
2018-01-12T06:07:44.242Z,12.73
2018-01-12T06:10:11.783Z,12.48
2018-01-12T06:12:40.114Z,14.18
2018-01-12T06:15:07.706Z,14.10
2018-01-12T06:17:36.047Z,14.15
2018-01-12T06:20:03.624Z,12.90
2018-01-12T06:22:31.214Z,13.62
2018-01-12T06:24:59.547Z,13.27
2018-01-12T06:27:27.117Z,13.10
2018-01-12T06:29:54.692Z,12.88
2018-01-12T06:32:22.256Z,15.25
2018-01-12T06:34:50.586Z,13.68
2018-01-12T06:37:18.174Z,13.62
2018-01-12T06:39:45.748Z,14.65
2018-01-12T06:42:13.305Z,14.77
2018-01-12T06:44:40.879Z,12.98
2018-01-12T06:47:09.223Z,13.35
2018-01-12T06:49:36.786Z,13.40
2018-01-12T06:52:04.359Z,13.15
2018-01-12T06:54:31.902Z,13.95
2018-01-12T06:56:59.476Z,13.48
2018-01-12T06:59:27.057Z,13.82
2018-01-12T07:01:54.611Z,14.95
2018-01-12T07:04:22.953Z,14.73
2018-01-12T07:06:50.538Z,12.15
2018-01-12T07:09:18.102Z,16.00
2018-01-12T07:11:45.715Z,14.07
2018-01-12T07:14:13.303Z,14.77
2018-01-12T07:16:40.858Z,14.55
2018-01-12T07:19:08.413Z,15.25
2018-01-12T07:21:47.825Z,14.55
2018-01-12T07:24:15.386Z,13.40
2018-01-12T07:26:42.932Z,13.88
2018-01-12T07:29:10.527Z,13.13
2018-01-12T07:31:38.085Z,15.35
2018-01-12T07:34:05.657Z,13.95
2018-01-12T07:36:33.241Z,13.60
2018-01-12T07:39:01.578Z,15.52
2018-01-12T07:41:29.137Z,14.20
2018-01-12T07:43:56.718Z,12.68
2018-01-12T07:46:24.319Z,15.00
2018-01-12T07:48:52.631Z,15.77
2018-01-12T07:51:20.208Z,14.65
2018-01-12T07:53:47.760Z,14.70
2018-01-12T07:56:15.305Z,14.35
2018-01-12T07:58:42.885Z,14.43
2018-01-12T08:01:16.270Z,13.55
2018-01-12T08:03:43.844Z,14.30
2018-01-12T08:06:11.415Z,14.50
2018-01-12T08:08:38.962Z,16.52
2018-01-12T08:11:06.527Z,13.50
2018-01-12T08:13:34.091Z,14.30
2018-01-12T08:16:01.651Z,14.18
2018-01-12T08:18:29.237Z,14.00
2018-01-12T08:20:57.560Z,16.17
2018-01-12T08:23:25.136Z,14.05
2018-01-12T08:25:52.735Z,14.48
2018-01-12T08:28:21.060Z,14.05
2018-01-12T08:30:48.612Z,16.52
2018-01-12T08:33:16.179Z,15.45
2018-01-12T08:35:43.737Z,15.90
2018-01-12T08:38:11.311Z,15.63
2018-01-12T08:40:38.901Z,15.32
2018-01-12T08:43:07.211Z,14.87
2018-01-12T08:45:34.755Z,13.73
2018-01-12T08:48:03.101Z,14.93
2018-01-12T08:50:30.657Z,12.80
2018-01-12T08:52:58.202Z,13.73
2018-01-12T08:55:25.786Z,14.18
2018-01-12T08:57:53.335Z,15.50
2018-01-12T09:00:20.887Z,13.45
2018-01-12T09:02:48.464Z,13.50
2018-01-12T09:05:16.011Z,12.52
2018-01-12T09:07:43.574Z,12.65
2018-01-12T09:10:11.160Z,13.65
2018-01-12T09:12:39.477Z,12.98
2018-01-12T09:15:25.937Z,12.50
2018-01-12T09:17:54.247Z,12.00
2018-01-12T09:20:21.817Z,12.40
2018-01-12T09:22:49.414Z,11.95
2018-01-12T09:25:26.133Z,12.25
2018-01-12T09:27:53.708Z,12.23
2018-01-12T09:30:21.270Z,13.13
2018-01-12T09:32:49.618Z,13.73
2018-01-12T09:35:17.197Z,11.93
2018-01-12T09:37:44.771Z,10.80
2018-01-12T09:40:28.110Z,12.37
2018-01-12T09:42:55.652Z,11.20
2018-01-12T09:45:23.201Z,11.25
2018-01-12T09:48:02.867Z,11.48
2018-01-12T09:50:30.425Z,9.90
2018-01-12T09:52:57.973Z,10.70
2018-01-12T09:55:25.549Z,9.35
2018-01-12T09:57:53.169Z,10.70
2018-01-12T10:00:28.310Z,9.35
2018-01-12T10:02:55.860Z,9.52
2018-01-12T10:05:24.162Z,8.57
2018-01-12T10:08:09.533Z,9.18
2018-01-12T10:10:37.102Z,10.90
2018-01-12T10:13:04.652Z,9.35
2018-01-12T10:15:32.216Z,9.75
2018-01-12T10:17:59.788Z,9.35
2018-01-12T10:20:30.127Z,10.60
2018-01-12T10:22:57.692Z,10.63
2018-01-12T10:25:25.275Z,9.13
2018-01-12T10:27:52.808Z,9.05
2018-01-12T10:30:24.033Z,8.80
2018-01-12T10:33:03.417Z,10.00
2018-01-12T10:35:30.997Z,9.45
2018-01-12T10:37:59.304Z,9.20
2018-01-12T10:40:49.395Z,8.43
2018-01-12T10:43:16.958Z,8.30
2018-01-12T10:45:52.431Z,9.20
2018-01-12T10:51:36.646Z,8.70
2018-01-12T10:54:05.108Z,8.60
2018-01-12T10:56:33.447Z,8.35
2018-01-12T10:59:01.038Z,7.75
2018-01-12T11:01:28.607Z,8.95
2018-01-12T11:03:56.951Z,8.07
2018-01-12T11:06:24.523Z,9.07
2018-01-12T11:08:52.087Z,10.00
2018-01-12T11:11:19.663Z,7.97
2018-01-12T11:13:48.022Z,8.65
2018-01-12T11:16:15.581Z,8.32
2018-01-12T11:18:43.150Z,9.48
2018-01-12T11:21:10.723Z,8.88
2018-01-12T11:23:39.059Z,10.65
2018-01-12T11:26:06.649Z,9.27
2018-01-12T11:28:34.237Z,9.50
2018-01-12T11:31:01.795Z,8.30
2018-01-12T11:33:29.340Z,8.90
2018-01-12T11:35:57.695Z,8.52
2018-01-12T11:38:25.276Z,9.13
2018-01-12T11:40:53.597Z,8.77
2018-01-12T11:43:21.219Z,7.82
2018-01-12T11:45:49.554Z,9.40
2018-01-12T11:48:17.128Z,7.75
2018-01-12T11:50:44.710Z,8.68
2018-01-12T11:53:13.055Z,8.77
2018-01-12T11:55:40.622Z,9.90
2018-01-12T11:58:08.230Z,8.07
2018-01-12T12:00:35.787Z,9.55
2018-01-12T12:03:03.355Z,8.85
2018-01-12T12:05:30.925Z,8.02
2018-01-12T12:07:58.504Z,9.00
2018-01-12T12:10:26.080Z,8.15
2018-01-12T12:12:53.654Z,8.75
2018-01-12T12:15:21.194Z,9.10
2018-01-12T12:17:48.775Z,9.30
2018-01-12T12:20:16.363Z,9.52
2018-01-12T12:22:43.928Z,9.60
2018-01-12T12:25:11.493Z,8.50
2018-01-12T12:27:39.081Z,9.00
2018-01-12T12:30:07.393Z,8.50
2018-01-12T12:32:34.957Z,9.10
2018-01-12T12:35:03.292Z,10.07
2018-01-12T12:37:30.836Z,9.32
2018-01-12T12:39:58.393Z,9.48
2018-01-12T12:42:25.964Z,9.68
2018-01-12T12:44:53.535Z,9.65
2018-01-12T12:47:21.879Z,9.63
2018-01-12T12:49:49.450Z,8.20
2018-01-12T12:52:17.005Z,8.75
2018-01-12T12:54:44.575Z,9.93
2018-01-12T12:57:12.153Z,9.00
2018-01-12T12:59:39.709Z,9.00
2018-01-12T13:02:07.273Z,9.77
2018-01-12T13:04:34.862Z,10.13
2018-01-12T13:07:02.424Z,10.00
2018-01-12T13:09:30.753Z,9.00
2018-01-12T13:11:58.335Z,9.45
2018-01-12T13:14:25.909Z,8.45
2018-01-12T13:16:53.467Z,9.13
2018-01-12T13:19:21.067Z,9.98
2018-01-12T13:21:48.648Z,11.30
2018-01-12T13:24:16.209Z,9.45
2018-01-12T13:26:43.793Z,10.40
2018-01-12T13:29:11.335Z,9.52
2018-01-12T13:31:38.890Z,10.02
2018-01-12T13:34:06.466Z,9.25
2018-01-12T13:36:34.021Z,10.02
2018-01-12T13:39:01.582Z,10.90
2018-01-12T13:41:29.177Z,9.18
2018-01-12T13:43:56.754Z,11.15
2018-01-12T13:46:25.083Z,9.30
2018-01-12T13:48:52.653Z,10.63
2018-01-12T13:51:20.205Z,9.88
2018-01-12T13:53:47.765Z,9.25
2018-01-12T13:56:15.333Z,8.38
2018-01-12T13:58:42.891Z,8.50
2018-01-12T14:01:10.455Z,9.88
2018-01-12T14:03:38.034Z,9.35
2018-01-12T14:06:05.607Z,9.13
2018-01-12T14:08:33.925Z,8.63
2018-01-12T14:11:01.520Z,7.72
2018-01-12T14:13:29.066Z,8.88
2018-01-12T14:15:56.616Z,8.70
2018-01-12T14:18:24.194Z,7.87
2018-01-12T14:20:51.753Z,8.07
2018-01-12T14:23:19.318Z,8.40
2018-01-12T14:25:46.896Z,7.95
2018-01-12T14:28:15.230Z,8.40
2018-01-12T14:30:42.790Z,8.27
2018-01-12T14:33:10.356Z,9.38
2018-01-12T14:35:40.024Z,8.10
2018-01-12T14:38:07.591Z,8.07
2018-01-12T14:40:35.189Z,9.02
2018-01-12T14:43:02.741Z,9.48
2018-01-12T14:45:30.297Z,7.93
2018-01-12T14:47:57.878Z,8.35
2018-01-12T14:50:25.433Z,8.43
2018-01-12T14:52:52.988Z,8.57
2018-01-12T14:55:20.555Z,6.80
2018-01-12T14:57:48.112Z,8.95
2018-01-12T15:00:15.665Z,9.02
2018-01-12T15:02:43.230Z,9.30
2018-01-12T15:05:10.800Z,9.23
2018-01-12T15:07:38.367Z,9.00
2018-01-12T15:10:05.935Z,9.20
2018-01-12T15:12:34.239Z,9.38
2018-01-12T15:15:01.790Z,8.55
2018-01-12T15:17:29.371Z,10.02
2018-01-12T15:19:56.939Z,8.43
2018-01-12T15:22:24.497Z,8.85
2018-01-12T15:24:52.091Z,9.52
2018-01-12T15:27:19.649Z,9.32
2018-01-12T15:29:47.213Z,9.60
2018-01-12T15:32:14.793Z,10.43
2018-01-12T15:34:43.130Z,10.55
2018-01-12T15:37:10.699Z,9.40
2018-01-12T15:39:38.263Z,8.75
2018-01-12T15:42:05.822Z,9.15
2018-01-12T15:44:33.367Z,8.77
2018-01-12T15:47:00.958Z,9.55
2018-01-12T15:49:28.513Z,9.43
2018-01-12T15:51:56.051Z,9.43
2018-01-12T15:54:23.632Z,9.50
2018-01-12T15:56:51.174Z,9.70
2018-01-12T15:59:18.729Z,9.50
2018-01-12T16:01:46.364Z,9.55
2018-01-12T16:04:14.675Z,9.57
2018-01-12T16:06:42.243Z,8.73
2018-01-12T16:09:09.844Z,9.27
2018-01-12T16:11:37.416Z,7.00
2018-01-12T16:14:04.988Z,9.20
2018-01-12T16:16:32.568Z,9.38
2018-01-12T16:19:00.111Z,9.43
2018-01-12T16:21:27.652Z,9.38
2018-01-12T16:23:55.239Z,8.82
2018-01-12T16:26:22.875Z,9.68
2018-01-12T16:28:50.442Z,9.68
2018-01-12T16:31:18.026Z,9.77
2018-01-12T16:33:46.078Z,8.60
2018-01-12T16:36:13.623Z,8.35
2018-01-12T16:38:41.215Z,9.68
2018-01-12T16:41:08.777Z,10.52
2018-01-12T16:43:36.334Z,9.00
2018-01-12T16:46:03.919Z,9.57
2018-01-12T16:48:31.481Z,9.65
2018-01-12T16:50:59.033Z,9.27
2018-01-12T16:53:26.635Z,8.38
2018-01-12T16:55:54.210Z,9.75
2018-01-12T16:58:21.751Z,8.98
2018-01-12T17:00:49.355Z,8.05
2018-01-12T17:03:17.202Z,9.38
2018-01-12T17:05:44.760Z,10.13
2018-01-12T17:08:12.327Z,8.80
2018-01-12T17:10:39.900Z,9.45
2018-01-12T17:13:07.448Z,9.80
2018-01-12T17:15:35.029Z,10.00
2018-01-12T17:18:02.572Z,9.68
2018-01-12T17:20:30.138Z,9.38
2018-01-12T17:22:57.700Z,8.77
2018-01-12T17:25:25.245Z,9.45
2018-01-12T17:27:52.810Z,10.45
2018-01-12T17:30:20.393Z,10.60
2018-01-12T17:32:47.938Z,10.52
2018-01-12T17:35:15.493Z,9.52
2018-01-12T17:37:43.892Z,10.30
2018-01-12T17:40:11.445Z,8.80
2018-01-12T17:42:38.997Z,8.75
2018-01-12T17:45:06.597Z,8.57
2018-01-12T17:47:34.907Z,9.63
2018-01-12T17:50:02.838Z,9.70
2018-01-12T17:52:31.212Z,9.75
2018-01-12T17:54:59.538Z,9.48
2018-01-12T17:57:27.096Z,9.95
2018-01-12T17:59:54.668Z,9.57
2018-01-12T18:02:22.230Z,9.57
2018-01-12T18:04:49.771Z,9.05
2018-01-12T18:07:17.373Z,9.75
2018-01-12T18:09:44.930Z,8.35
2018-01-12T18:12:12.470Z,9.57
2018-01-12T18:14:40.054Z,10.95
2018-01-12T18:17:07.626Z,11.52
2018-01-12T18:19:35.967Z,10.15
2018-01-12T18:22:03.629Z,9.60
2018-01-12T18:24:31.225Z,10.50
2018-01-12T18:26:59.544Z,9.13
2018-01-12T18:29:27.156Z,10.35
2018-01-12T18:31:54.689Z,10.10
2018-01-12T18:34:22.254Z,10.82
2018-01-12T18:36:49.833Z,9.90
2018-01-12T18:39:18.161Z,9.95
2018-01-12T18:41:45.718Z,9.55
2018-01-12T18:44:13.287Z,10.98
2018-01-12T18:46:40.837Z,9.50
2018-01-12T18:49:08.410Z,10.90
2018-01-12T18:51:35.996Z,9.95
2018-01-12T18:54:03.563Z,9.43
2018-01-12T18:56:31.125Z,9.60
2018-01-12T18:58:58.720Z,10.68
2018-01-12T19:01:26.259Z,9.55
2018-01-12T19:03:54.581Z,10.45
2018-01-12T19:06:22.162Z,9.90
2018-01-12T19:08:49.732Z,11.40
2018-01-12T19:11:17.294Z,11.40
2018-01-12T19:13:44.860Z,10.70
2018-01-12T19:16:12.407Z,10.60
2018-01-12T19:18:39.969Z,12.35
2018-01-12T19:21:07.549Z,12.60
2018-01-12T19:23:35.891Z,11.88
2018-01-12T19:26:03.448Z,11.30
2018-01-12T19:28:31.038Z,10.45
2018-01-12T19:30:58.607Z,11.20
2018-01-12T19:33:26.937Z,12.52
2018-01-12T19:35:54.509Z,12.45
2018-01-12T19:38:22.051Z,12.37
2018-01-12T19:40:49.613Z,11.55
2018-01-12T19:43:17.201Z,11.98
2018-01-12T19:45:45.541Z,11.07
2018-01-12T19:48:13.113Z,12.02
2018-01-12T19:50:40.715Z,10.60
2018-01-12T19:53:09.043Z,11.73
2018-01-12T19:55:37.602Z,10.95
2018-01-12T19:58:05.180Z,11.90
2018-01-12T20:00:32.728Z,13.50
2018-01-12T20:03:00.281Z,9.80
2018-01-12T20:05:27.879Z,11.85
2018-01-12T20:07:55.432Z,11.30
2018-01-12T20:10:22.998Z,11.07
2018-01-12T20:12:50.576Z,11.85
2018-01-12T20:15:18.125Z,11.10
2018-01-12T20:17:45.695Z,12.40
2018-01-12T20:20:13.286Z,12.35
2018-01-12T20:22:41.597Z,11.18
2018-01-12T20:25:09.262Z,11.70
2018-01-12T20:27:37.759Z,12.25
2018-01-12T20:30:05.312Z,12.55
2018-01-12T20:32:32.951Z,12.07
2018-01-12T20:35:01.256Z,13.50
2018-01-12T20:37:28.818Z,13.75
2018-01-12T20:39:56.362Z,12.98
2018-01-12T20:42:23.935Z,12.18
2018-01-12T20:44:51.504Z,12.32
2018-01-12T20:47:19.051Z,12.43
2018-01-12T20:49:46.615Z,11.12
2018-01-12T20:52:14.191Z,11.05
2018-01-12T20:54:41.739Z,10.75
2018-01-12T20:57:09.303Z,11.68
2018-01-12T20:59:36.861Z,10.82
2018-01-12T21:02:04.434Z,11.18
2018-01-12T21:04:32.008Z,11.12
2018-01-12T21:07:00.319Z,11.23
2018-01-12T21:09:27.888Z,11.15
2018-01-12T21:11:55.675Z,11.15
2018-01-12T21:14:23.236Z,11.77
2018-01-12T21:16:50.797Z,11.52
2018-01-12T21:19:18.381Z,12.32
2018-01-12T21:21:45.945Z,11.35
2018-01-12T21:24:14.265Z,11.10
2018-01-12T21:26:41.845Z,12.95
2018-01-12T21:29:09.401Z,11.65
2018-01-12T21:31:36.975Z,12.27
2018-01-12T21:34:04.571Z,11.88
2018-01-12T21:36:32.893Z,11.30
2018-01-12T21:39:00.444Z,12.02
2018-01-12T21:41:28.043Z,10.68
2018-01-12T21:43:55.619Z,11.68
2018-01-12T21:46:23.950Z,12.43
2018-01-12T21:48:51.527Z,12.30
2018-01-12T21:51:19.088Z,12.32
2018-01-12T21:53:46.659Z,13.52
2018-01-12T21:56:14.236Z,13.15
2018-01-12T21:58:42.557Z,12.35
2018-01-12T22:01:10.113Z,14.13
2018-01-12T22:03:37.692Z,12.23
2018-01-12T22:06:06.508Z,13.73
2018-01-12T22:08:34.167Z,12.50
2018-01-12T22:11:01.753Z,12.95
2018-01-12T22:13:30.087Z,13.00
2018-01-12T22:15:57.660Z,12.60
2018-01-12T22:18:25.253Z,12.73
2018-01-12T22:20:53.566Z,11.57
2018-01-12T22:23:21.129Z,13.07
2018-01-12T22:25:48.704Z,12.15
2018-01-12T22:28:16.252Z,12.35
2018-01-12T22:30:43.800Z,11.70
2018-01-12T22:33:11.385Z,12.70
2018-01-12T22:35:40.461Z,13.05
2018-01-12T22:38:08.035Z,11.90
2018-01-12T22:40:35.622Z,11.25
2018-01-12T22:43:03.176Z,12.52
2018-01-12T22:45:30.727Z,11.07
2018-01-12T22:47:58.295Z,11.70
2018-01-12T22:50:25.866Z,11.90
2018-01-12T22:52:53.429Z,10.90
2018-01-12T22:55:21.762Z,11.82
2018-01-12T22:57:49.326Z,13.77
2018-01-12T23:00:16.876Z,11.50
2018-01-12T23:02:44.461Z,10.65
2018-01-12T23:05:12.017Z,11.35
2018-01-12T23:07:39.566Z,11.55
2018-01-12T23:10:07.145Z,12.23
2018-01-12T23:12:34.691Z,10.40
2018-01-12T23:15:02.252Z,10.68
2018-01-12T23:17:29.836Z,11.93
2018-01-12T23:19:58.272Z,9.85
2018-01-12T23:22:25.833Z,11.35
2018-01-12T23:24:53.460Z,10.38
2018-01-12T23:27:21.789Z,11.70
2018-01-12T23:29:49.359Z,10.15
2018-01-12T23:32:16.938Z,9.80
2018-01-12T23:34:44.508Z,9.07
2018-01-12T23:37:12.859Z,10.25
2018-01-12T23:39:40.444Z,10.68
2018-01-12T23:42:08.773Z,9.95
2018-01-12T23:44:36.343Z,10.88
2018-01-12T23:47:03.920Z,12.55
2018-01-12T23:49:31.467Z,11.60
2018-01-12T23:51:59.040Z,11.15
2018-01-12T23:54:26.626Z,11.07
2018-01-12T23:56:54.946Z,10.95
2018-01-12T23:59:22.514Z,10.95
